createdAt,value
2023-10-10T00:02:44.303Z,1.85
2023-10-10T00:05:37.826Z,2.28
2023-10-10T00:08:34.925Z,1.60
2023-10-10T00:11:27.595Z,1.60
2023-10-10T00:14:20.517Z,1.23
2023-10-10T00:17:11.763Z,1.30
2023-10-10T00:20:17.453Z,1.55
2023-10-10T00:23:12.239Z,1.35
2023-10-10T00:26:02.529Z,1.52
2023-10-10T00:28:57.662Z,1.20
2023-10-10T00:31:59.703Z,1.35
2023-10-10T00:34:55.096Z,1.52
2023-10-10T00:37:46.478Z,1.20
2023-10-10T00:40:40.674Z,1.50
2023-10-10T00:43:32.477Z,1.77
2023-10-10T00:46:25.997Z,1.73
2023-10-10T00:49:18.442Z,1.45
2023-10-10T00:52:14.741Z,1.40
2023-10-10T00:55:06.352Z,1.58
2023-10-10T00:58:00.438Z,1.50
2023-10-10T01:00:54.252Z,1.48
2023-10-10T01:03:50.825Z,1.50
2023-10-10T01:06:41.445Z,1.50
2023-10-10T01:09:35.396Z,1.60
2023-10-10T01:12:26.977Z,1.40
2023-10-10T01:15:26.613Z,1.65
2023-10-10T01:18:17.267Z,1.83
2023-10-10T01:21:10.558Z,1.48
2023-10-10T01:24:13.061Z,1.40
2023-10-10T01:27:18.317Z,1.85
2023-10-10T01:30:19.285Z,1.83
2023-10-10T01:33:11.232Z,1.80
2023-10-10T01:36:04.418Z,2.30
2023-10-10T01:39:21.230Z,1.92
2023-10-10T01:42:14.001Z,1.75
2023-10-10T01:45:09.720Z,2.20
2023-10-10T01:48:04.449Z,2.08
2023-10-10T01:50:55.430Z,1.73
2023-10-10T01:53:45.776Z,1.88
2023-10-10T01:56:39.811Z,2.00
2023-10-10T01:59:37.057Z,2.80
2023-10-10T02:02:28.706Z,2.65
2023-10-10T02:05:30.930Z,2.10
2023-10-10T02:08:23.684Z,2.10
2023-10-10T02:11:15.358Z,2.30
2023-10-10T02:14:12.560Z,2.20
2023-10-10T02:17:10.647Z,2.65
2023-10-10T02:20:19.958Z,2.45
2023-10-10T02:23:25.659Z,2.45
2023-10-10T02:26:25.559Z,2.70
2023-10-10T02:29:22.413Z,2.88
2023-10-10T02:32:14.304Z,2.53
2023-10-10T02:35:27.115Z,2.58
2023-10-10T02:38:18.339Z,3.05
2023-10-10T02:41:23.964Z,2.80
2023-10-10T02:44:27.482Z,3.03
2023-10-10T02:47:32.559Z,2.97
2023-10-10T02:50:35.714Z,3.10
2023-10-10T02:53:26.096Z,3.28
2023-10-10T02:56:21.461Z,3.13
2023-10-10T02:59:12.316Z,3.25
2023-10-10T03:02:10.476Z,3.40
2023-10-10T03:05:16.862Z,3.10
2023-10-10T03:08:13.877Z,3.10
2023-10-10T03:11:16.055Z,3.28
2023-10-10T03:14:09.218Z,3.00
2023-10-10T03:17:11.127Z,3.08
2023-10-10T03:20:14.741Z,3.33
2023-10-10T03:23:24.964Z,3.40
2023-10-10T03:26:21.081Z,3.33
2023-10-10T03:29:13.117Z,3.30
2023-10-10T03:32:17.636Z,3.20
2023-10-10T03:35:22.012Z,3.15
2023-10-10T03:38:32.476Z,3.10
2023-10-10T03:41:42.287Z,3.30
2023-10-10T03:44:45.019Z,3.95
2023-10-10T03:48:02.501Z,2.85
2023-10-10T03:51:07.860Z,2.83
2023-10-10T03:54:12.609Z,3.47
2023-10-10T03:57:15.838Z,2.95
2023-10-10T04:00:19.090Z,3.20
2023-10-10T04:03:22.223Z,3.13
2023-10-10T04:06:27.754Z,3.10
2023-10-10T04:09:39.030Z,3.78
2023-10-10T04:12:41.737Z,2.90
2023-10-10T04:15:47.599Z,2.63
2023-10-10T04:18:59.780Z,2.78
2023-10-10T04:22:05.111Z,2.55
2023-10-10T04:25:07.915Z,3.10
2023-10-10T04:28:10.623Z,2.90
2023-10-10T04:31:13.380Z,3.20
2023-10-10T04:34:16.235Z,3.67
2023-10-10T04:37:21.593Z,2.75
2023-10-10T04:40:25.113Z,3.38
2023-10-10T04:43:27.799Z,3.22
2023-10-10T04:46:31.328Z,3.42
2023-10-10T04:49:34.126Z,2.90
2023-10-10T04:52:39.389Z,2.97
2023-10-10T04:55:42.099Z,2.83
2023-10-10T04:58:44.837Z,3.30
2023-10-10T05:01:56.006Z,3.03
2023-10-10T05:04:58.702Z,3.40
2023-10-10T05:08:06.450Z,3.20
2023-10-10T05:11:09.417Z,3.08
2023-10-10T05:14:12.138Z,3.25
2023-10-10T05:17:14.965Z,2.75
2023-10-10T05:20:20.167Z,2.97
2023-10-10T05:23:25.579Z,3.08
2023-10-10T05:26:20.561Z,3.20
2023-10-10T05:29:12.001Z,3.20
2023-10-10T05:32:09.645Z,2.97
2023-10-10T05:35:01.647Z,3.08
2023-10-10T05:37:53.361Z,2.42
2023-10-10T05:40:48.678Z,2.60
2023-10-10T05:43:38.973Z,2.83
2023-10-10T05:46:31.935Z,2.90
2023-10-10T05:49:22.766Z,3.03
2023-10-10T05:52:13.579Z,2.58
2023-10-10T05:55:04.073Z,2.83
2023-10-10T05:57:57.322Z,3.17
2023-10-10T06:00:50.891Z,2.90
2023-10-10T06:03:41.445Z,3.00
2023-10-10T06:06:33.221Z,2.83
2023-10-10T06:09:28.119Z,3.17
2023-10-10T06:12:18.358Z,3.60
2023-10-10T06:15:18.235Z,3.35
2023-10-10T06:18:13.961Z,3.00
2023-10-10T06:21:10.278Z,3.53
2023-10-10T06:24:02.078Z,3.80
2023-10-10T06:26:52.374Z,3.13
2023-10-10T06:29:43.370Z,3.20
2023-10-10T06:32:37.248Z,3.22
2023-10-10T06:35:37.477Z,2.72
2023-10-10T06:38:27.920Z,2.45
2023-10-10T06:41:23.781Z,2.20
2023-10-10T06:44:15.445Z,4.33
2023-10-10T06:47:13.776Z,2.60
2023-10-10T06:50:12.458Z,2.63
2023-10-10T06:53:03.141Z,2.40
2023-10-10T06:55:53.768Z,2.25
2023-10-10T06:58:44.739Z,2.85
2023-10-10T07:01:34.951Z,2.40
2023-10-10T07:04:28.835Z,2.85
2023-10-10T07:07:22.902Z,2.70
2023-10-10T07:10:25.963Z,2.95
2023-10-10T07:13:20.318Z,2.47
2023-10-10T07:16:10.592Z,3.05
2023-10-10T07:19:20.254Z,3.20
2023-10-10T07:22:09.691Z,4.55
2023-10-10T07:25:08.615Z,5.85
2023-10-10T07:28:02.216Z,4.18
2023-10-10T07:30:52.460Z,3.95
2023-10-10T07:33:44.961Z,5.03
2023-10-10T07:36:35.406Z,4.75
2023-10-10T07:39:37.931Z,4.15
2023-10-10T07:42:32.410Z,4.85
2023-10-10T07:45:34.784Z,4.30
2023-10-10T07:48:37.793Z,4.78
2023-10-10T07:51:36.265Z,3.35
2023-10-10T07:54:40.888Z,4.22
2023-10-10T07:57:54.174Z,3.95
2023-10-10T08:00:46.084Z,3.53
2023-10-10T08:03:36.394Z,4.38
2023-10-10T08:06:27.332Z,4.30
2023-10-10T08:09:24.783Z,4.43
2023-10-10T08:12:15.108Z,3.97
2023-10-10T08:15:20.723Z,4.50
2023-10-10T08:18:11.253Z,4.15
2023-10-10T08:21:12.208Z,3.78
2023-10-10T08:24:02.435Z,4.30
2023-10-10T08:26:53.120Z,4.30
2023-10-10T08:29:43.822Z,3.88
2023-10-10T08:32:36.800Z,3.70
2023-10-10T08:35:31.227Z,3.85
2023-10-10T08:38:23.259Z,3.88
2023-10-10T08:41:13.837Z,4.10
2023-10-10T08:44:05.432Z,4.18
2023-10-10T08:47:00.949Z,3.42
2023-10-10T08:49:53.762Z,4.50
2023-10-10T08:52:44.001Z,4.00
2023-10-10T08:55:37.986Z,5.43
2023-10-10T08:58:32.784Z,4.13
2023-10-10T09:01:23.570Z,4.03
2023-10-10T09:04:20.706Z,3.90
2023-10-10T09:07:21.682Z,3.85
2023-10-10T09:10:15.378Z,3.80
2023-10-10T09:13:08.384Z,4.30
2023-10-10T09:15:59.327Z,4.10
2023-10-10T09:19:10.381Z,4.72
2023-10-10T09:22:03.423Z,3.97
2023-10-10T09:24:57.469Z,4.55
2023-10-10T09:28:00.763Z,4.30
2023-10-10T09:31:00.942Z,4.32
2023-10-10T09:33:55.650Z,4.03
2023-10-10T09:36:54.937Z,4.00
2023-10-10T09:39:56.493Z,3.60
2023-10-10T09:43:13.356Z,4.40
2023-10-10T09:46:12.500Z,3.50
2023-10-10T09:49:15.529Z,3.83
2023-10-10T09:52:18.549Z,3.85
2023-10-10T09:55:31.105Z,3.10
2023-10-10T09:58:29.387Z,3.35
2023-10-10T10:01:25.120Z,3.55
2023-10-10T10:04:19.687Z,4.18
2023-10-10T10:07:25.246Z,4.07
2023-10-10T10:10:49.739Z,3.50
2023-10-10T10:14:21.951Z,4.03
2023-10-10T10:17:20.126Z,3.60
2023-10-10T10:20:21.889Z,3.92
2023-10-10T10:23:14.293Z,3.58
2023-10-10T10:26:12.171Z,3.67
2023-10-10T10:29:17.355Z,3.10
2023-10-10T10:32:12.032Z,3.80
2023-10-10T10:35:09.916Z,4.60
2023-10-10T10:38:01.680Z,4.20
2023-10-10T10:40:50.362Z,4.97
2023-10-10T10:43:44.039Z,4.05
2023-10-10T10:46:49.633Z,4.18
2023-10-10T10:49:42.092Z,4.63
2023-10-10T10:52:45.496Z,4.38
2023-10-10T10:55:41.267Z,4.88
2023-10-10T10:58:28.966Z,4.10
2023-10-10T11:01:21.528Z,4.03
2023-10-10T11:04:25.836Z,4.45
2023-10-10T11:07:28.087Z,3.92
2023-10-10T11:10:36.972Z,4.22
2023-10-10T11:13:29.530Z,3.75
2023-10-10T11:16:19.869Z,2.75
2023-10-10T11:19:27.048Z,3.63
2023-10-10T11:25:42.854Z,3.22
2023-10-10T11:28:38.924Z,4.10
2023-10-10T11:31:30.796Z,4.18
2023-10-10T11:34:43.651Z,4.47
2023-10-10T11:37:44.001Z,3.67
2023-10-10T11:40:35.829Z,4.22
2023-10-10T11:43:28.890Z,4.20
2023-10-10T11:46:22.379Z,4.13
2023-10-10T11:49:18.329Z,4.32
2023-10-10T11:52:21.185Z,4.70
2023-10-10T11:55:15.530Z,3.70
2023-10-10T11:58:09.610Z,3.80
2023-10-10T12:01:05.684Z,3.58
2023-10-10T12:04:07.058Z,3.42
2023-10-10T12:07:01.377Z,3.40
2023-10-10T12:09:55.966Z,4.00
2023-10-10T12:12:50.432Z,3.80
2023-10-10T12:15:41.771Z,3.90
2023-10-10T12:18:34.262Z,4.15
2023-10-10T12:21:25.467Z,3.67
2023-10-10T12:24:16.060Z,4.05
2023-10-10T12:27:08.991Z,4.35
2023-10-10T12:30:01.941Z,4.32
2023-10-10T12:32:53.225Z,4.15
2023-10-10T12:35:45.316Z,3.67
2023-10-10T12:38:35.749Z,3.10
2023-10-10T12:41:26.044Z,4.32
2023-10-10T12:44:16.651Z,4.07
2023-10-10T12:47:11.508Z,3.47
2023-10-10T12:50:05.719Z,3.95
2023-10-10T12:53:08.797Z,3.60
2023-10-10T12:56:02.777Z,3.47
2023-10-10T12:59:03.041Z,3.50
2023-10-10T13:02:01.823Z,3.50
2023-10-10T13:04:55.907Z,3.67
2023-10-10T13:07:46.466Z,3.53
2023-10-10T13:10:38.881Z,4.20
2023-10-10T13:13:32.877Z,3.70
2023-10-10T13:16:26.942Z,3.63
2023-10-10T13:19:22.154Z,3.70
2023-10-10T13:22:22.512Z,4.63
2023-10-10T13:25:13.581Z,3.65
2023-10-10T13:28:10.501Z,5.32
2023-10-10T13:31:03.601Z,3.20
2023-10-10T13:33:54.617Z,2.97
2023-10-10T13:36:44.809Z,3.50
2023-10-10T13:39:45.210Z,2.60
2023-10-10T13:42:36.077Z,3.55
2023-10-10T13:45:29.567Z,3.63
2023-10-10T13:48:20.355Z,2.92
2023-10-10T13:51:11.423Z,2.50
2023-10-10T13:54:01.734Z,3.15
2023-10-10T13:56:55.368Z,3.13
2023-10-10T13:59:50.558Z,3.65
2023-10-10T14:02:41.180Z,3.72
2023-10-10T14:05:34.954Z,3.10
2023-10-10T14:08:28.195Z,2.80
2023-10-10T14:11:22.354Z,3.08
2023-10-10T14:14:15.506Z,2.70
2023-10-10T14:17:08.974Z,2.78
2023-10-10T14:20:00.749Z,2.30
2023-10-10T14:22:56.089Z,2.42
2023-10-10T14:25:49.048Z,2.13
2023-10-10T14:28:39.249Z,1.95
2023-10-10T14:31:32.561Z,2.20
2023-10-10T14:34:26.144Z,2.67
2023-10-10T14:37:35.997Z,2.60
2023-10-10T14:40:27.818Z,3.17
2023-10-10T14:43:18.061Z,2.60
2023-10-10T14:46:10.488Z,2.70
2023-10-10T14:49:18.484Z,3.03
2023-10-10T14:52:09.167Z,2.58
2023-10-10T14:55:06.463Z,2.90
2023-10-10T14:57:58.315Z,2.72
2023-10-10T15:00:49.966Z,2.80
2023-10-10T15:03:42.700Z,2.70
2023-10-10T15:06:36.557Z,2.83
2023-10-10T15:09:28.201Z,2.67
2023-10-10T15:12:18.577Z,2.67
2023-10-10T15:15:10.557Z,2.50
2023-10-10T15:18:00.900Z,2.67
2023-10-10T15:20:52.439Z,3.17
2023-10-10T15:23:47.928Z,3.17
2023-10-10T15:26:38.264Z,3.33
2023-10-10T15:29:29.005Z,3.75
2023-10-10T15:32:19.353Z,2.72
2023-10-10T15:35:10.754Z,2.72
2023-10-10T15:38:01.008Z,3.35
2023-10-10T15:40:53.871Z,3.42
2023-10-10T15:43:48.237Z,3.72
2023-10-10T15:46:43.915Z,3.20
2023-10-10T15:49:36.917Z,3.33
2023-10-10T15:52:28.224Z,3.70
2023-10-10T15:55:20.869Z,3.03
2023-10-10T15:58:13.715Z,3.42
2023-10-10T16:01:05.868Z,3.30
2023-10-10T16:03:56.705Z,3.75
2023-10-10T16:06:48.456Z,3.15
2023-10-10T16:09:38.770Z,3.03
2023-10-10T16:12:29.991Z,3.20
2023-10-10T16:15:30.316Z,2.80
2023-10-10T16:18:22.054Z,3.58
2023-10-10T16:21:12.418Z,3.22
2023-10-10T16:24:02.711Z,3.80
2023-10-10T16:26:59.707Z,3.00
2023-10-10T16:29:49.996Z,3.75
2023-10-10T16:32:44.702Z,3.70
2023-10-10T16:35:35.213Z,5.03
2023-10-10T16:38:25.731Z,3.78
2023-10-10T16:41:16.055Z,4.80
2023-10-10T16:44:06.640Z,3.72
2023-10-10T16:46:57.454Z,3.17
2023-10-10T16:49:51.235Z,3.35
2023-10-10T16:52:42.370Z,3.45
2023-10-10T16:55:34.237Z,3.50
2023-10-10T16:58:24.481Z,4.38
2023-10-10T17:01:17.235Z,5.13
2023-10-10T17:04:08.568Z,5.13
2023-10-10T17:07:01.510Z,4.93
2023-10-10T17:09:52.416Z,4.55
2023-10-10T17:12:43.553Z,5.43
2023-10-10T17:15:39.971Z,5.30
2023-10-10T17:18:32.608Z,6.18
2023-10-10T17:21:23.259Z,5.13
2023-10-10T17:24:16.972Z,4.85
2023-10-10T17:27:08.307Z,4.28
2023-10-10T17:29:58.895Z,3.97
2023-10-10T17:32:49.354Z,5.25
2023-10-10T17:35:42.725Z,4.00
2023-10-10T17:38:33.544Z,3.50
2023-10-10T17:41:26.392Z,4.38
2023-10-10T17:44:18.324Z,4.15
2023-10-10T17:47:08.822Z,3.45
2023-10-10T17:50:00.567Z,3.72
2023-10-10T17:52:50.839Z,3.42
2023-10-10T17:55:41.412Z,3.50
2023-10-10T17:58:34.261Z,4.00
2023-10-10T18:01:25.779Z,3.85
2023-10-10T18:04:16.733Z,6.18
2023-10-10T18:07:11.580Z,4.55
2023-10-10T18:10:01.963Z,4.45
2023-10-10T18:12:52.280Z,3.75
2023-10-10T18:15:47.764Z,3.60
2023-10-10T18:18:38.173Z,3.78
2023-10-10T18:21:31.266Z,3.67
2023-10-10T18:24:28.636Z,3.67
2023-10-10T18:27:20.107Z,3.58
2023-10-10T18:30:14.159Z,3.10
2023-10-10T18:33:09.375Z,3.97
2023-10-10T18:36:00.028Z,3.40
2023-10-10T18:38:51.325Z,3.50
2023-10-10T18:41:42.783Z,4.20
2023-10-10T18:44:33.287Z,3.88
2023-10-10T18:47:23.652Z,4.47
2023-10-10T18:50:20.046Z,3.90
2023-10-10T18:53:10.350Z,4.60
2023-10-10T18:56:00.909Z,3.80
2023-10-10T18:58:51.504Z,4.03
2023-10-10T19:01:45.539Z,4.10
2023-10-10T19:04:35.953Z,3.67
2023-10-10T19:07:28.877Z,3.70
2023-10-10T19:10:19.494Z,4.07
2023-10-10T19:13:10.541Z,3.65
2023-10-10T19:16:00.993Z,3.85
2023-10-10T19:18:51.470Z,4.22
2023-10-10T19:21:43.192Z,5.90
2023-10-10T19:24:40.016Z,5.10
2023-10-10T19:27:30.420Z,4.53
2023-10-10T19:30:20.872Z,4.35
2023-10-10T19:33:12.446Z,4.25
2023-10-10T19:36:09.404Z,4.18
2023-10-10T19:38:59.810Z,4.20
2023-10-10T19:41:54.290Z,3.50
2023-10-10T19:44:44.590Z,3.33
2023-10-10T19:47:36.889Z,3.65
2023-10-10T19:50:28.492Z,2.97
2023-10-10T19:53:20.516Z,3.25
2023-10-10T19:56:15.498Z,3.40
2023-10-10T19:59:08.662Z,3.22
2023-10-10T20:01:58.984Z,3.20
2023-10-10T20:04:49.450Z,3.00
2023-10-10T20:07:39.817Z,3.17
2023-10-10T20:10:30.278Z,2.90
2023-10-10T20:13:21.351Z,3.03
2023-10-10T20:16:18.829Z,4.13
2023-10-10T20:19:09.852Z,3.63
2023-10-10T20:22:00.153Z,3.63
2023-10-10T20:24:50.526Z,2.88
2023-10-10T20:27:40.734Z,3.15
2023-10-10T20:30:33.721Z,3.28
2023-10-10T20:33:26.925Z,3.38
2023-10-10T20:36:17.573Z,3.63
2023-10-10T20:39:19.729Z,3.97
2023-10-10T20:42:11.028Z,3.70
2023-10-10T20:45:01.331Z,3.65
2023-10-10T20:47:54.285Z,3.28
2023-10-10T20:50:47.260Z,3.70
2023-10-10T20:53:37.509Z,3.90
2023-10-10T20:56:28.857Z,3.72
2023-10-10T20:59:19.966Z,3.33
2023-10-10T21:02:12.944Z,3.63
2023-10-10T21:05:03.196Z,3.58
2023-10-10T21:07:58.389Z,3.50
2023-10-10T21:10:51.878Z,4.03
2023-10-10T21:13:42.269Z,3.65
2023-10-10T21:16:34.824Z,3.40
2023-10-10T21:19:27.242Z,3.70
2023-10-10T21:22:17.483Z,3.72
2023-10-10T21:25:12.206Z,3.28
2023-10-10T21:28:04.873Z,3.10
2023-10-10T21:30:55.350Z,3.83
2023-10-10T21:33:47.015Z,3.65
2023-10-10T21:36:37.428Z,3.60
2023-10-10T21:39:27.643Z,3.53
2023-10-10T21:42:23.769Z,3.17
2023-10-10T21:45:15.069Z,2.83
2023-10-10T21:48:06.398Z,2.92
2023-10-10T21:50:58.778Z,2.90
2023-10-10T21:53:50.693Z,3.03
2023-10-10T21:56:43.285Z,3.35
2023-10-10T21:59:39.110Z,3.50
2023-10-10T22:02:29.945Z,3.25
2023-10-10T22:05:22.884Z,3.13
2023-10-10T22:08:13.130Z,3.10
2023-10-10T22:11:03.621Z,3.22
2023-10-10T22:13:53.960Z,2.67
2023-10-10T22:16:48.223Z,3.63
2023-10-10T22:19:38.536Z,3.20
2023-10-10T22:22:28.767Z,3.08
2023-10-10T22:25:19.215Z,3.08
2023-10-10T22:28:11.262Z,3.50
2023-10-10T22:31:01.548Z,4.22
2023-10-10T22:33:55.107Z,3.17
2023-10-10T22:36:52.066Z,3.05
2023-10-10T22:39:48.824Z,3.20
2023-10-10T22:42:39.595Z,3.15
2023-10-10T22:45:29.811Z,2.85
2023-10-10T22:48:20.102Z,3.33
2023-10-10T22:51:14.550Z,3.10
2023-10-10T22:54:07.340Z,2.80
2023-10-10T22:56:57.890Z,3.70
2023-10-10T22:59:48.219Z,2.90
2023-10-10T23:02:38.541Z,2.90
2023-10-10T23:05:33.140Z,2.60
2023-10-10T23:08:26.416Z,3.50
2023-10-10T23:11:18.328Z,2.72
2023-10-10T23:14:11.128Z,2.80
2023-10-10T23:17:02.059Z,3.22
2023-10-10T23:19:52.224Z,2.80
2023-10-10T23:22:43.358Z,2.88
2023-10-10T23:25:36.165Z,2.90
2023-10-10T23:28:26.362Z,3.28
2023-10-10T23:31:17.713Z,2.80
2023-10-10T23:34:09.407Z,3.30
2023-10-10T23:37:00.303Z,2.58
2023-10-10T23:39:52.625Z,2.90
2023-10-10T23:42:50.716Z,2.83
2023-10-10T23:45:43.640Z,2.80
2023-10-10T23:48:36.205Z,2.58
2023-10-10T23:51:28.169Z,2.90
2023-10-10T23:54:18.518Z,2.92
2023-10-10T23:57:08.787Z,3.13
